sensor_id;sensor_type;location;lat;lon;timestamp;P1;durP1;ratioP1;P2;durP2;ratioP2
42146;SDS011;27815;43.410;11.852;2023-11-21T00:03:53;29.38;;;20.45;;
42146;SDS011;27815;43.410;11.852;2023-11-21T00:07:57;32.17;;;22.77;;
42146;SDS011;27815;43.410;11.852;2023-11-21T00:12:00;27.70;;;20.33;;
42146;SDS011;27815;43.410;11.852;2023-11-21T00:16:04;25.67;;;18.27;;
42146;SDS011;27815;43.410;11.852;2023-11-21T00:20:08;30.08;;;21.25;;
42146;SDS011;27815;43.410;11.852;2023-11-21T00:24:15;31.48;;;19.02;;
42146;SDS011;27815;43.410;11.852;2023-11-21T00:28:18;25.70;;;18.38;;
42146;SDS011;27815;43.410;11.852;2023-11-21T00:32:21;27.50;;;20.05;;
42146;SDS011;27815;43.410;11.852;2023-11-21T00:36:24;24.58;;;17.90;;
42146;SDS011;27815;43.410;11.852;2023-11-21T00:40:28;18.83;;;16.38;;
42146;SDS011;27815;43.410;11.852;2023-11-21T00:44:31;17.95;;;13.98;;
42146;SDS011;27815;43.410;11.852;2023-11-21T00:48:37;15.87;;;11.63;;
42146;SDS011;27815;43.410;11.852;2023-11-21T00:52:40;19.02;;;16.02;;
42146;SDS011;27815;43.410;11.852;2023-11-21T00:56:43;17.52;;;13.90;;
42146;SDS011;27815;43.410;11.852;2023-11-21T01:00:46;27.98;;;20.73;;
42146;SDS011;27815;43.410;11.852;2023-11-21T01:04:51;21.23;;;15.32;;
42146;SDS011;27815;43.410;11.852;2023-11-21T01:08:54;20.55;;;16.67;;
42146;SDS011;27815;43.410;11.852;2023-11-21T01:12:57;29.63;;;18.52;;
42146;SDS011;27815;43.410;11.852;2023-11-21T01:17:00;24.45;;;18.67;;
42146;SDS011;27815;43.410;11.852;2023-11-21T01:21:04;26.60;;;18.33;;
42146;SDS011;27815;43.410;11.852;2023-11-21T01:25:07;28.65;;;19.35;;
42146;SDS011;27815;43.410;11.852;2023-11-21T01:29:10;25.80;;;18.77;;
42146;SDS011;27815;43.410;11.852;2023-11-21T01:33:13;27.90;;;19.75;;
42146;SDS011;27815;43.410;11.852;2023-11-21T01:37:21;21.98;;;16.38;;
42146;SDS011;27815;43.410;11.852;2023-11-21T01:41:24;27.30;;;17.88;;
42146;SDS011;27815;43.410;11.852;2023-11-21T01:45:29;22.60;;;18.05;;
42146;SDS011;27815;43.410;11.852;2023-11-21T01:49:36;31.88;;;19.30;;
42146;SDS011;27815;43.410;11.852;2023-11-21T01:53:41;11.60;;;7.80;;
42146;SDS011;27815;43.410;11.852;2023-11-21T01:57:48;10.88;;;6.93;;
42146;SDS011;27815;43.410;11.852;2023-11-21T02:01:51;9.68;;;6.82;;
42146;SDS011;27815;43.410;11.852;2023-11-21T02:05:54;7.00;;;5.55;;
42146;SDS011;27815;43.410;11.852;2023-11-21T02:09:57;12.77;;;6.63;;
42146;SDS011;27815;43.410;11.852;2023-11-21T02:14:01;6.85;;;5.85;;
42146;SDS011;27815;43.410;11.852;2023-11-21T02:18:04;11.15;;;10.15;;
42146;SDS011;27815;43.410;11.852;2023-11-21T02:22:09;7.65;;;7.00;;
42146;SDS011;27815;43.410;11.852;2023-11-21T02:26:13;8.65;;;7.80;;
42146;SDS011;27815;43.410;11.852;2023-11-21T02:30:20;7.75;;;6.97;;
42146;SDS011;27815;43.410;11.852;2023-11-21T02:34:24;8.43;;;7.30;;
42146;SDS011;27815;43.410;11.852;2023-11-21T02:38:27;9.38;;;7.38;;
42146;SDS011;27815;43.410;11.852;2023-11-21T02:42:30;17.00;;;13.73;;
42146;SDS011;27815;43.410;11.852;2023-11-21T02:46:33;14.30;;;12.13;;
42146;SDS011;27815;43.410;11.852;2023-11-21T02:50:38;17.55;;;14.70;;
42146;SDS011;27815;43.410;11.852;2023-11-21T02:54:41;19.48;;;15.65;;
42146;SDS011;27815;43.410;11.852;2023-11-21T02:58:44;14.93;;;13.02;;
42146;SDS011;27815;43.410;11.852;2023-11-21T03:02:50;18.57;;;14.47;;
42146;SDS011;27815;43.410;11.852;2023-11-21T03:06:53;21.60;;;14.15;;
42146;SDS011;27815;43.410;11.852;2023-11-21T03:10:56;15.70;;;12.75;;
42146;SDS011;27815;43.410;11.852;2023-11-21T03:14:59;19.75;;;14.38;;
42146;SDS011;27815;43.410;11.852;2023-11-21T03:19:04;17.42;;;13.32;;
42146;SDS011;27815;43.410;11.852;2023-11-21T03:23:07;19.83;;;14.27;;
42146;SDS011;27815;43.410;11.852;2023-11-21T03:27:10;17.70;;;13.82;;
42146;SDS011;27815;43.410;11.852;2023-11-21T03:31:15;17.80;;;14.50;;
42146;SDS011;27815;43.410;11.852;2023-11-21T03:35:19;22.70;;;14.43;;
42146;SDS011;27815;43.410;11.852;2023-11-21T03:39:23;18.77;;;14.25;;
42146;SDS011;27815;43.410;11.852;2023-11-21T03:43:28;16.15;;;10.80;;
42146;SDS011;27815;43.410;11.852;2023-11-21T03:47:31;10.38;;;6.63;;
42146;SDS011;27815;43.410;11.852;2023-11-21T03:51:34;6.65;;;4.93;;
42146;SDS011;27815;43.410;11.852;2023-11-21T03:55:38;5.85;;;4.63;;
42146;SDS011;27815;43.410;11.852;2023-11-21T03:59:42;5.38;;;4.80;;
42146;SDS011;27815;43.410;11.852;2023-11-21T04:03:45;7.07;;;4.80;;
42146;SDS011;27815;43.410;11.852;2023-11-21T04:07:51;6.97;;;4.90;;
42146;SDS011;27815;43.410;11.852;2023-11-21T04:11:55;5.30;;;4.60;;
42146;SDS011;27815;43.410;11.852;2023-11-21T04:15:57;10.68;;;9.55;;
42146;SDS011;27815;43.410;11.852;2023-11-21T04:20:00;13.48;;;10.57;;
42146;SDS011;27815;43.410;11.852;2023-11-21T04:24:03;17.73;;;12.57;;
42146;SDS011;27815;43.410;11.852;2023-11-21T04:28:07;12.35;;;11.00;;
42146;SDS011;27815;43.410;11.852;2023-11-21T04:32:10;13.43;;;10.75;;
42146;SDS011;27815;43.410;11.852;2023-11-21T04:36:15;13.60;;;10.52;;
42146;SDS011;27815;43.410;11.852;2023-11-21T04:40:18;14.00;;;11.75;;
42146;SDS011;27815;43.410;11.852;2023-11-21T04:44:23;16.48;;;12.18;;
42146;SDS011;27815;43.410;11.852;2023-11-21T04:48:26;20.10;;;13.50;;
42146;SDS011;27815;43.410;11.852;2023-11-21T04:52:29;10.30;;;5.28;;
42146;SDS011;27815;43.410;11.852;2023-11-21T04:56:32;7.53;;;6.00;;
42146;SDS011;27815;43.410;11.852;2023-11-21T05:00:35;16.70;;;13.50;;
42146;SDS011;27815;43.410;11.852;2023-11-21T05:04:41;15.67;;;13.03;;
42146;SDS011;27815;43.410;11.852;2023-11-21T05:08:45;15.68;;;10.88;;
42146;SDS011;27815;43.410;11.852;2023-11-21T05:12:48;17.92;;;12.32;;
42146;SDS011;27815;43.410;11.852;2023-11-21T05:16:52;19.42;;;12.05;;
42146;SDS011;27815;43.410;11.852;2023-11-21T05:20:55;18.23;;;12.38;;
42146;SDS011;27815;43.410;11.852;2023-11-21T05:24:58;17.45;;;12.43;;
42146;SDS011;27815;43.410;11.852;2023-11-21T05:29:01;15.27;;;13.10;;
42146;SDS011;27815;43.410;11.852;2023-11-21T05:33:05;20.60;;;13.95;;
42146;SDS011;27815;43.410;11.852;2023-11-21T05:37:08;21.27;;;13.65;;
42146;SDS011;27815;43.410;11.852;2023-11-21T05:41:11;16.63;;;12.35;;
42146;SDS011;27815;43.410;11.852;2023-11-21T05:45:15;13.85;;;11.57;;
42146;SDS011;27815;43.410;11.852;2023-11-21T05:49:20;13.52;;;10.80;;
42146;SDS011;27815;43.410;11.852;2023-11-21T05:53:25;7.45;;;5.53;;
42146;SDS011;27815;43.410;11.852;2023-11-21T05:57:28;7.28;;;5.40;;
42146;SDS011;27815;43.410;11.852;2023-11-21T06:01:31;11.10;;;7.00;;
42146;SDS011;27815;43.410;11.852;2023-11-21T06:05:35;14.27;;;11.77;;
42146;SDS011;27815;43.410;11.852;2023-11-21T06:09:38;14.43;;;11.25;;
42146;SDS011;27815;43.410;11.852;2023-11-21T06:13:40;8.73;;;6.35;;
42146;SDS011;27815;43.410;11.852;2023-11-21T06:17:44;13.77;;;7.03;;
42146;SDS011;27815;43.410;11.852;2023-11-21T06:21:51;11.35;;;9.23;;
42146;SDS011;27815;43.410;11.852;2023-11-21T06:25:54;8.10;;;6.72;;
42146;SDS011;27815;43.410;11.852;2023-11-21T06:29:57;9.32;;;4.82;;
42146;SDS011;27815;43.410;11.852;2023-11-21T06:34:00;6.07;;;4.60;;
42146;SDS011;27815;43.410;11.852;2023-11-21T06:38:04;11.65;;;8.85;;
42146;SDS011;27815;43.410;11.852;2023-11-21T06:42:07;10.82;;;5.82;;
42146;SDS011;27815;43.410;11.852;2023-11-21T06:46:10;6.28;;;4.80;;
42146;SDS011;27815;43.410;11.852;2023-11-21T06:50:14;4.93;;;4.32;;
42146;SDS011;27815;43.410;11.852;2023-11-21T06:54:18;8.75;;;4.88;;
42146;SDS011;27815;43.410;11.852;2023-11-21T06:58:21;5.05;;;4.50;;
42146;SDS011;27815;43.410;11.852;2023-11-21T07:02:24;6.75;;;3.72;;
42146;SDS011;27815;43.410;11.852;2023-11-21T07:06:27;6.47;;;3.97;;
42146;SDS011;27815;43.410;11.852;2023-11-21T07:10:30;5.65;;;3.22;;
42146;SDS011;27815;43.410;11.852;2023-11-21T07:14:34;6.40;;;3.97;;
42146;SDS011;27815;43.410;11.852;2023-11-21T07:18:37;5.43;;;3.75;;
42146;SDS011;27815;43.410;11.852;2023-11-21T07:22:40;15.60;;;9.77;;
42146;SDS011;27815;43.410;11.852;2023-11-21T07:26:43;12.77;;;9.73;;
42146;SDS011;27815;43.410;11.852;2023-11-21T07:30:46;16.90;;;10.50;;
42146;SDS011;27815;43.410;11.852;2023-11-21T07:34:49;11.88;;;8.73;;
42146;SDS011;27815;43.410;11.852;2023-11-21T07:38:52;7.32;;;3.78;;
42146;SDS011;27815;43.410;11.852;2023-11-21T07:42:55;4.35;;;3.55;;
42146;SDS011;27815;43.410;11.852;2023-11-21T07:46:59;5.68;;;3.63;;
42146;SDS011;27815;43.410;11.852;2023-11-21T07:51:02;4.45;;;3.28;;
42146;SDS011;27815;43.410;11.852;2023-11-21T07:55:12;5.68;;;4.28;;
42146;SDS011;27815;43.410;11.852;2023-11-21T07:59:16;14.63;;;9.93;;
42146;SDS011;27815;43.410;11.852;2023-11-21T08:03:20;14.77;;;11.25;;
42146;SDS011;27815;43.410;11.852;2023-11-21T08:07:23;13.50;;;9.75;;
42146;SDS011;27815;43.410;11.852;2023-11-21T08:11:26;11.77;;;8.90;;
42146;SDS011;27815;43.410;11.852;2023-11-21T08:15:31;9.77;;;4.30;;
42146;SDS011;27815;43.410;11.852;2023-11-21T08:19:35;5.03;;;4.15;;
42146;SDS011;27815;43.410;11.852;2023-11-21T08:23:39;4.78;;;2.78;;
42146;SDS011;27815;43.410;11.852;2023-11-21T08:27:42;3.63;;;2.13;;
42146;SDS011;27815;43.410;11.852;2023-11-21T08:31:46;7.07;;;2.33;;
42146;SDS011;27815;43.410;11.852;2023-11-21T08:35:49;3.42;;;2.15;;
42146;SDS011;27815;43.410;11.852;2023-11-21T08:39:53;4.60;;;2.17;;
42146;SDS011;27815;43.410;11.852;2023-11-21T08:43:56;5.13;;;2.13;;
42146;SDS011;27815;43.410;11.852;2023-11-21T08:48:01;5.32;;;2.10;;
42146;SDS011;27815;43.410;11.852;2023-11-21T08:52:04;5.35;;;2.42;;
42146;SDS011;27815;43.410;11.852;2023-11-21T08:56:12;6.50;;;2.35;;
42146;SDS011;27815;43.410;11.852;2023-11-21T09:00:18;5.30;;;2.65;;
42146;SDS011;27815;43.410;11.852;2023-11-21T09:04:21;6.45;;;3.55;;
42146;SDS011;27815;43.410;11.852;2023-11-21T09:08:25;6.57;;;2.97;;
42146;SDS011;27815;43.410;11.852;2023-11-21T09:12:28;6.70;;;3.85;;
42146;SDS011;27815;43.410;11.852;2023-11-21T09:16:30;6.75;;;3.60;;
42146;SDS011;27815;43.410;11.852;2023-11-21T09:20:34;8.23;;;3.83;;
42146;SDS011;27815;43.410;11.852;2023-11-21T09:24:37;6.55;;;3.85;;
42146;SDS011;27815;43.410;11.852;2023-11-21T09:28:42;7.85;;;4.55;;
42146;SDS011;27815;43.410;11.852;2023-11-21T09:32:49;10.25;;;4.43;;
42146;SDS011;27815;43.410;11.852;2023-11-21T09:36:52;6.72;;;3.95;;
42146;SDS011;27815;43.410;11.852;2023-11-21T09:40:56;6.72;;;4.28;;
42146;SDS011;27815;43.410;11.852;2023-11-21T09:45:15;5.60;;;4.18;;
42146;SDS011;27815;43.410;11.852;2023-11-21T09:49:23;7.60;;;5.10;;
42146;SDS011;27815;43.410;11.852;2023-11-21T09:53:28;8.57;;;5.57;;
42146;SDS011;27815;43.410;11.852;2023-11-21T09:57:35;9.10;;;6.13;;
42146;SDS011;27815;43.410;11.852;2023-11-21T10:01:38;12.10;;;7.88;;
42146;SDS011;27815;43.410;11.852;2023-11-21T10:05:44;12.50;;;8.10;;
42146;SDS011;27815;43.410;11.852;2023-11-21T10:09:48;12.88;;;8.02;;
42146;SDS011;27815;43.410;11.852;2023-11-21T10:13:54;11.77;;;7.57;;
42146;SDS011;27815;43.410;11.852;2023-11-21T10:17:57;9.88;;;7.50;;
42146;SDS011;27815;43.410;11.852;2023-11-21T10:22:01;7.43;;;5.38;;
42146;SDS011;27815;43.410;11.852;2023-11-21T10:26:06;7.80;;;5.72;;
42146;SDS011;27815;43.410;11.852;2023-11-21T10:34:39;8.32;;;5.63;;
42146;SDS011;27815;43.410;11.852;2023-11-21T10:38:43;6.80;;;5.25;;
42146;SDS011;27815;43.410;11.852;2023-11-21T10:42:48;5.93;;;5.10;;
42146;SDS011;27815;43.410;11.852;2023-11-21T10:46:53;6.45;;;5.05;;
42146;SDS011;27815;43.410;11.852;2023-11-21T10:51:00;7.63;;;4.70;;
42146;SDS011;27815;43.410;11.852;2023-11-21T10:55:18;9.18;;;4.68;;
42146;SDS011;27815;43.410;11.852;2023-11-21T10:59:30;5.20;;;4.18;;
42146;SDS011;27815;43.410;11.852;2023-11-21T11:03:35;8.48;;;4.80;;
42146;SDS011;27815;43.410;11.852;2023-11-21T11:07:39;8.07;;;4.88;;
42146;SDS011;27815;43.410;11.852;2023-11-21T11:11:46;7.15;;;4.75;;
42146;SDS011;27815;43.410;11.852;2023-11-21T11:15:49;8.82;;;4.65;;
42146;SDS011;27815;43.410;11.852;2023-11-21T11:19:52;8.02;;;4.82;;
42146;SDS011;27815;43.410;11.852;2023-11-21T11:24:05;7.88;;;5.95;;
42146;SDS011;27815;43.410;11.852;2023-11-21T11:28:12;11.02;;;5.97;;
42146;SDS011;27815;43.410;11.852;2023-11-21T11:37:07;6.63;;;5.18;;
42146;SDS011;27815;43.410;11.852;2023-11-21T11:41:13;9.68;;;6.10;;
42146;SDS011;27815;43.410;11.852;2023-11-21T11:45:34;11.55;;;5.55;;
42146;SDS011;27815;43.410;11.852;2023-11-21T11:49:54;8.70;;;6.22;;
42146;SDS011;27815;43.410;11.852;2023-11-21T11:54:02;7.40;;;5.85;;
42146;SDS011;27815;43.410;11.852;2023-11-21T11:58:06;7.43;;;5.78;;
42146;SDS011;27815;43.410;11.852;2023-11-21T12:02:10;8.02;;;5.35;;
42146;SDS011;27815;43.410;11.852;2023-11-21T12:06:13;8.55;;;5.72;;
42146;SDS011;27815;43.410;11.852;2023-11-21T12:10:17;7.82;;;5.88;;
42146;SDS011;27815;43.410;11.852;2023-11-21T12:14:21;9.48;;;5.85;;
42146;SDS011;27815;43.410;11.852;2023-11-21T12:18:25;7.95;;;5.28;;
42146;SDS011;27815;43.410;11.852;2023-11-21T12:22:28;7.88;;;5.10;;
42146;SDS011;27815;43.410;11.852;2023-11-21T12:26:33;9.30;;;4.90;;
42146;SDS011;27815;43.410;11.852;2023-11-21T12:30:36;8.32;;;4.95;;
42146;SDS011;27815;43.410;11.852;2023-11-21T12:34:41;10.73;;;8.95;;
42146;SDS011;27815;43.410;11.852;2023-11-21T12:38:44;11.57;;;10.07;;
42146;SDS011;27815;43.410;11.852;2023-11-21T12:42:47;7.30;;;6.22;;
42146;SDS011;27815;43.410;11.852;2023-11-21T12:46:55;9.70;;;8.68;;
42146;SDS011;27815;43.410;11.852;2023-11-21T12:50:58;6.35;;;4.50;;
42146;SDS011;27815;43.410;11.852;2023-11-21T12:55:02;10.60;;;4.88;;
42146;SDS011;27815;43.410;11.852;2023-11-21T12:59:06;6.43;;;4.85;;
42146;SDS011;27815;43.410;11.852;2023-11-21T13:03:09;10.82;;;5.45;;
42146;SDS011;27815;43.410;11.852;2023-11-21T13:07:16;9.15;;;5.15;;
42146;SDS011;27815;43.410;11.852;2023-11-21T13:11:20;13.60;;;7.30;;
42146;SDS011;27815;43.410;11.852;2023-11-21T13:15:23;10.75;;;6.97;;
42146;SDS011;27815;43.410;11.852;2023-11-21T13:19:27;7.57;;;5.53;;
42146;SDS011;27815;43.410;11.852;2023-11-21T13:23:34;8.10;;;5.00;;
42146;SDS011;27815;43.410;11.852;2023-11-21T13:27:38;6.50;;;3.90;;
42146;SDS011;27815;43.410;11.852;2023-11-21T13:31:41;9.35;;;3.88;;
42146;SDS011;27815;43.410;11.852;2023-11-21T13:35:45;37.42;;;27.23;;
42146;SDS011;27815;43.410;11.852;2023-11-21T13:39:52;30.85;;;24.75;;
42146;SDS011;27815;43.410;11.852;2023-11-21T13:43:56;10.52;;;6.63;;
42146;SDS011;27815;43.410;11.852;2023-11-21T13:48:17;7.15;;;3.88;;
42146;SDS011;27815;43.410;11.852;2023-11-21T13:52:28;6.35;;;3.20;;
42146;SDS011;27815;43.410;11.852;2023-11-21T13:56:34;10.38;;;3.58;;
42146;SDS011;27815;43.410;11.852;2023-11-21T14:00:38;6.53;;;3.78;;
42146;SDS011;27815;43.410;11.852;2023-11-21T14:04:47;8.07;;;3.95;;
42146;SDS011;27815;43.410;11.852;2023-11-21T14:09:03;10.23;;;5.43;;
42146;SDS011;27815;43.410;11.852;2023-11-21T14:13:07;12.15;;;7.32;;
42146;SDS011;27815;43.410;11.852;2023-11-21T14:17:12;5.85;;;2.63;;
42146;SDS011;27815;43.410;11.852;2023-11-21T14:21:15;5.28;;;2.97;;
42146;SDS011;27815;43.410;11.852;2023-11-21T14:25:18;6.68;;;2.97;;
42146;SDS011;27815;43.410;11.852;2023-11-21T14:29:21;4.07;;;2.20;;
42146;SDS011;27815;43.410;11.852;2023-11-21T14:33:26;6.47;;;2.50;;
42146;SDS011;27815;43.410;11.852;2023-11-21T14:37:29;4.60;;;2.80;;
42146;SDS011;27815;43.410;11.852;2023-11-21T14:41:33;5.32;;;3.20;;
42146;SDS011;27815;43.410;11.852;2023-11-21T14:45:38;6.22;;;4.15;;
42146;SDS011;27815;43.410;11.852;2023-11-21T14:49:42;9.88;;;6.93;;
42146;SDS011;27815;43.410;11.852;2023-11-21T14:54:09;4.85;;;2.72;;
42146;SDS011;27815;43.410;11.852;2023-11-21T14:58:14;4.70;;;2.58;;
42146;SDS011;27815;43.410;11.852;2023-11-21T15:02:22;34.83;;;23.63;;
42146;SDS011;27815;43.410;11.852;2023-11-21T15:06:46;10.02;;;5.57;;
42146;SDS011;27815;43.410;11.852;2023-11-21T15:10:50;6.82;;;3.38;;
42146;SDS011;27815;43.410;11.852;2023-11-21T15:14:57;4.10;;;2.67;;
42146;SDS011;27815;43.410;11.852;2023-11-21T15:18:59;3.55;;;2.25;;
42146;SDS011;27815;43.410;11.852;2023-11-21T15:23:02;4.28;;;2.40;;
42146;SDS011;27815;43.410;11.852;2023-11-21T15:27:07;5.97;;;2.90;;
42146;SDS011;27815;43.410;11.852;2023-11-21T15:31:10;7.20;;;2.83;;
42146;SDS011;27815;43.410;11.852;2023-11-21T15:35:13;4.38;;;2.22;;
42146;SDS011;27815;43.410;11.852;2023-11-21T15:39:17;3.75;;;2.00;;
42146;SDS011;27815;43.410;11.852;2023-11-21T15:43:32;4.85;;;1.98;;
42146;SDS011;27815;43.410;11.852;2023-11-21T15:47:35;3.63;;;2.13;;
42146;SDS011;27815;43.410;11.852;2023-11-21T15:51:39;4.85;;;2.80;;
42146;SDS011;27815;43.410;11.852;2023-11-21T15:55:54;4.05;;;1.98;;
42146;SDS011;27815;43.410;11.852;2023-11-21T15:59:57;7.85;;;6.50;;
42146;SDS011;27815;43.410;11.852;2023-11-21T16:04:24;4.57;;;3.35;;
42146;SDS011;27815;43.410;11.852;2023-11-21T16:08:43;4.25;;;2.53;;
42146;SDS011;27815;43.410;11.852;2023-11-21T16:13:01;4.07;;;1.90;;
42146;SDS011;27815;43.410;11.852;2023-11-21T16:17:08;3.58;;;2.00;;
42146;SDS011;27815;43.410;11.852;2023-11-21T16:21:14;3.35;;;1.58;;
42146;SDS011;27815;43.410;11.852;2023-11-21T16:25:20;2.15;;;1.50;;
42146;SDS011;27815;43.410;11.852;2023-11-21T16:29:49;6.70;;;3.60;;
42146;SDS011;27815;43.410;11.852;2023-11-21T16:33:52;3.65;;;1.92;;
42146;SDS011;27815;43.410;11.852;2023-11-21T16:38:10;4.57;;;3.15;;
42146;SDS011;27815;43.410;11.852;2023-11-21T16:46:43;2.63;;;1.15;;
42146;SDS011;27815;43.410;11.852;2023-11-21T16:51:25;3.15;;;1.42;;
42146;SDS011;27815;43.410;11.852;2023-11-21T16:55:34;1.73;;;1.20;;
42146;SDS011;27815;43.410;11.852;2023-11-21T16:59:52;2.17;;;1.13;;
42146;SDS011;27815;43.410;11.852;2023-11-21T17:03:56;1.83;;;1.30;;
42146;SDS011;27815;43.410;11.852;2023-11-21T17:08:01;3.53;;;1.10;;
42146;SDS011;27815;43.410;11.852;2023-11-21T17:12:06;1.73;;;1.27;;
42146;SDS011;27815;43.410;11.852;2023-11-21T17:16:09;2.90;;;1.52;;
42146;SDS011;27815;43.410;11.852;2023-11-21T17:20:15;7.70;;;4.30;;
42146;SDS011;27815;43.410;11.852;2023-11-21T17:24:19;8.05;;;6.32;;
42146;SDS011;27815;43.410;11.852;2023-11-21T17:28:22;4.53;;;3.60;;
42146;SDS011;27815;43.410;11.852;2023-11-21T17:32:25;3.97;;;2.50;;
42146;SDS011;27815;43.410;11.852;2023-11-21T17:36:29;4.38;;;2.30;;
42146;SDS011;27815;43.410;11.852;2023-11-21T17:40:34;4.30;;;2.47;;
42146;SDS011;27815;43.410;11.852;2023-11-21T17:45:04;5.57;;;2.20;;
42146;SDS011;27815;43.410;11.852;2023-11-21T17:49:11;6.53;;;4.43;;
42146;SDS011;27815;43.410;11.852;2023-11-21T17:53:15;8.10;;;2.50;;
42146;SDS011;27815;43.410;11.852;2023-11-21T17:57:19;4.80;;;2.60;;
42146;SDS011;27815;43.410;11.852;2023-11-21T18:01:23;5.03;;;2.45;;
42146;SDS011;27815;43.410;11.852;2023-11-21T18:05:26;5.18;;;2.47;;
42146;SDS011;27815;43.410;11.852;2023-11-21T18:09:29;6.82;;;2.78;;
42146;SDS011;27815;43.410;11.852;2023-11-21T18:13:33;6.97;;;3.00;;
42146;SDS011;27815;43.410;11.852;2023-11-21T18:17:36;7.10;;;4.05;;
42146;SDS011;27815;43.410;11.852;2023-11-21T18:21:41;6.05;;;3.60;;
42146;SDS011;27815;43.410;11.852;2023-11-21T18:25:46;7.25;;;3.60;;
42146;SDS011;27815;43.410;11.852;2023-11-21T18:29:49;9.60;;;4.35;;
42146;SDS011;27815;43.410;11.852;2023-11-21T18:33:53;6.63;;;4.20;;
42146;SDS011;27815;43.410;11.852;2023-11-21T18:37:57;19.40;;;9.23;;
42146;SDS011;27815;43.410;11.852;2023-11-21T18:42:01;10.07;;;6.93;;
42146;SDS011;27815;43.410;11.852;2023-11-21T18:46:06;11.23;;;6.97;;
42146;SDS011;27815;43.410;11.852;2023-11-21T18:50:12;11.45;;;6.60;;
42146;SDS011;27815;43.410;11.852;2023-11-21T18:54:21;10.18;;;6.50;;
42146;SDS011;27815;43.410;11.852;2023-11-21T18:58:24;9.70;;;5.47;;
42146;SDS011;27815;43.410;11.852;2023-11-21T19:02:29;7.10;;;5.10;;
42146;SDS011;27815;43.410;11.852;2023-11-21T19:06:32;6.32;;;4.15;;
42146;SDS011;27815;43.410;11.852;2023-11-21T19:10:35;8.30;;;4.10;;
42146;SDS011;27815;43.410;11.852;2023-11-21T19:14:39;10.90;;;7.93;;
42146;SDS011;27815;43.410;11.852;2023-11-21T19:18:43;5.97;;;4.20;;
42146;SDS011;27815;43.410;11.852;2023-11-21T19:22:46;3.67;;;2.70;;
42146;SDS011;27815;43.410;11.852;2023-11-21T19:26:49;6.85;;;3.10;;
42146;SDS011;27815;43.410;11.852;2023-11-21T19:30:52;4.03;;;2.30;;
42146;SDS011;27815;43.410;11.852;2023-11-21T19:34:57;5.75;;;2.40;;
42146;SDS011;27815;43.410;11.852;2023-11-21T19:39:00;4.10;;;2.58;;
42146;SDS011;27815;43.410;11.852;2023-11-21T19:43:03;4.00;;;3.22;;
42146;SDS011;27815;43.410;11.852;2023-11-21T19:47:06;4.70;;;3.83;;
42146;SDS011;27815;43.410;11.852;2023-11-21T19:51:09;6.68;;;5.40;;
42146;SDS011;27815;43.410;11.852;2023-11-21T19:55:14;3.33;;;2.40;;
42146;SDS011;27815;43.410;11.852;2023-11-21T19:59:18;3.67;;;2.47;;
42146;SDS011;27815;43.410;11.852;2023-11-21T20:03:23;3.03;;;2.25;;
42146;SDS011;27815;43.410;11.852;2023-11-21T20:07:26;4.07;;;3.03;;
42146;SDS011;27815;43.410;11.852;2023-11-21T20:11:31;9.98;;;8.93;;
42146;SDS011;27815;43.410;11.852;2023-11-21T20:15:34;13.23;;;11.38;;
42146;SDS011;27815;43.410;11.852;2023-11-21T20:19:36;4.50;;;2.15;;
42146;SDS011;27815;43.410;11.852;2023-11-21T20:23:40;3.25;;;2.42;;
42146;SDS011;27815;43.410;11.852;2023-11-21T20:27:46;3.05;;;2.08;;
42146;SDS011;27815;43.410;11.852;2023-11-21T20:31:50;2.03;;;1.65;;
42146;SDS011;27815;43.410;11.852;2023-11-21T20:35:53;2.88;;;1.88;;
42146;SDS011;27815;43.410;11.852;2023-11-21T20:39:57;1.67;;;1.40;;
42146;SDS011;27815;43.410;11.852;2023-11-21T20:44:03;2.28;;;1.67;;
42146;SDS011;27815;43.410;11.852;2023-11-21T20:48:07;3.40;;;2.03;;
42146;SDS011;27815;43.410;11.852;2023-11-21T20:52:10;5.03;;;3.45;;
42146;SDS011;27815;43.410;11.852;2023-11-21T20:56:13;1.95;;;1.75;;
42146;SDS011;27815;43.410;11.852;2023-11-21T21:00:17;3.15;;;2.63;;
42146;SDS011;27815;43.410;11.852;2023-11-21T21:04:22;3.08;;;2.53;;
42146;SDS011;27815;43.410;11.852;2023-11-21T21:08:25;2.97;;;1.98;;
42146;SDS011;27815;43.410;11.852;2023-11-21T21:12:29;2.38;;;1.58;;
42146;SDS011;27815;43.410;11.852;2023-11-21T21:16:40;1.77;;;1.52;;
42146;SDS011;27815;43.410;11.852;2023-11-21T21:20:44;2.28;;;1.60;;
42146;SDS011;27815;43.410;11.852;2023-11-21T21:24:47;3.35;;;2.13;;
42146;SDS011;27815;43.410;11.852;2023-11-21T21:28:50;1.60;;;1.50;;
42146;SDS011;27815;43.410;11.852;2023-11-21T21:33:01;1.80;;;1.40;;
42146;SDS011;27815;43.410;11.852;2023-11-21T21:37:05;2.67;;;1.60;;
42146;SDS011;27815;43.410;11.852;2023-11-21T21:41:10;1.50;;;1.40;;
42146;SDS011;27815;43.410;11.852;2023-11-21T21:45:14;2.20;;;1.50;;
42146;SDS011;27815;43.410;11.852;2023-11-21T21:49:23;2.25;;;1.77;;
42146;SDS011;27815;43.410;11.852;2023-11-21T21:53:36;2.00;;;1.40;;
42146;SDS011;27815;43.410;11.852;2023-11-21T21:57:45;1.70;;;1.50;;
42146;SDS011;27815;43.410;11.852;2023-11-21T22:02:00;1.85;;;1.40;;
42146;SDS011;27815;43.410;11.852;2023-11-21T22:06:03;1.60;;;1.50;;
42146;SDS011;27815;43.410;11.852;2023-11-21T22:10:08;1.65;;;1.50;;
42146;SDS011;27815;43.410;11.852;2023-11-21T22:14:11;1.60;;;1.50;;
42146;SDS011;27815;43.410;11.852;2023-11-21T22:18:17;1.52;;;1.40;;
42146;SDS011;27815;43.410;11.852;2023-11-21T22:22:25;2.05;;;1.50;;
42146;SDS011;27815;43.410;11.852;2023-11-21T22:26:33;1.85;;;1.63;;
42146;SDS011;27815;43.410;11.852;2023-11-21T22:30:39;2.80;;;1.50;;
42146;SDS011;27815;43.410;11.852;2023-11-21T22:34:45;1.70;;;1.60;;
42146;SDS011;27815;43.410;11.852;2023-11-21T22:38:53;1.70;;;1.60;;
42146;SDS011;27815;43.410;11.852;2023-11-21T22:43:12;2.03;;;1.90;;
42146;SDS011;27815;43.410;11.852;2023-11-21T22:47:26;2.40;;;1.63;;
42146;SDS011;27815;43.410;11.852;2023-11-21T22:51:29;1.75;;;1.52;;
42146;SDS011;27815;43.410;11.852;2023-11-21T22:55:32;1.60;;;1.50;;
42146;SDS011;27815;43.410;11.852;2023-11-21T22:59:48;1.75;;;1.50;;
42146;SDS011;27815;43.410;11.852;2023-11-21T23:04:11;1.48;;;1.38;;
42146;SDS011;27815;43.410;11.852;2023-11-21T23:08:31;1.40;;;1.30;;
42146;SDS011;27815;43.410;11.852;2023-11-21T23:12:45;1.90;;;1.50;;
42146;SDS011;27815;43.410;11.852;2023-11-21T23:16:55;1.70;;;1.60;;
42146;SDS011;27815;43.410;11.852;2023-11-21T23:21:02;2.20;;;1.33;;
42146;SDS011;27815;43.410;11.852;2023-11-21T23:25:09;1.45;;;1.35;;
42146;SDS011;27815;43.410;11.852;2023-11-21T23:29:14;2.33;;;1.58;;
42146;SDS011;27815;43.410;11.852;2023-11-21T23:33:20;2.08;;;1.50;;
42146;SDS011;27815;43.410;11.852;2023-11-21T23:38:07;1.55;;;1.40;;
42146;SDS011;27815;43.410;11.852;2023-11-21T23:42:38;2.83;;;1.60;;
42146;SDS011;27815;43.410;11.852;2023-11-21T23:46:44;1.65;;;1.42;;
42146;SDS011;27815;43.410;11.852;2023-11-21T23:50:53;2.30;;;1.40;;
42146;SDS011;27815;43.410;11.852;2023-11-21T23:55:07;5.40;;;1.70;;
42146;SDS011;27815;43.410;11.852;2023-11-21T23:59:11;3.65;;;1.65;;
